Time;durP1;ratioP1;P1;durP2;ratioP2;P2;SDS_P1;SDS_P2;PMS_P1;PMS_P2;Temp;Humidity;BMP_temperature;BMP_pressure;BME280_temperature;BME280_humidity;BME280_pressure;Samples;Min_cycle;Max_cycle;Signal;HPM_P1;HPM_P2
2021/12/11 00:01:36;;;;;;;20.13;13.65;;;-1.80;99.90;;;;;;4981292;28;20069;-60
2021/12/11 00:04:06;;;;;;;23.50;14.50;;;-1.70;99.90;;;;;;4995685;28;20046;-60
2021/12/11 00:06:36;;;;;;;21.20;12.88;;;-1.70;99.90;;;;;;4986647;28;20082;-60
2021/12/11 00:09:25;;;;;;;18.98;12.23;;;-1.70;99.90;;;;;;4981607;28;20093;-61
2021/12/11 00:11:56;;;;;;;19.23;11.77;;;-1.80;99.90;;;;;;4979165;28;20093;-60
2021/12/11 00:14:23;;;;;;;18.20;12.32;;;-1.80;99.90;;;;;;4977854;28;20058;-60
2021/12/11 00:16:50;;;;;;;20.02;13.00;;;-1.80;99.90;;;;;;4966480;28;20049;-60
2021/12/11 00:19:22;;;;;;;18.92;12.48;;;-1.80;99.90;;;;;;4968571;28;20053;-61
2021/12/11 00:21:49;;;;;;;19.52;13.15;;;-1.80;99.90;;;;;;4979622;28;20046;-60
2021/12/11 00:24:17;;;;;;;19.20;12.88;;;-1.80;99.90;;;;;;4967660;28;20586;-60
2021/12/11 00:26:56;;;;;;;20.42;12.98;;;-1.80;99.90;;;;;;4980624;28;20571;-60
2021/12/11 00:29:25;;;;;;;21.23;13.50;;;-1.80;99.90;;;;;;4969756;28;20069;-60
2021/12/11 00:32:01;;;;;;;25.38;13.43;;;-1.80;99.90;;;;;;4982700;28;20057;-60
2021/12/11 00:34:27;;;;;;;22.88;14.10;;;-1.80;99.90;;;;;;4964191;28;20051;-59
2021/12/11 00:37:03;;;;;;;24.52;14.38;;;-1.90;99.90;;;;;;4964541;28;20049;-61
2021/12/11 00:39:31;;;;;;;21.35;13.00;;;-1.90;99.90;;;;;;4966740;28;20480;-60
2021/12/11 00:42:00;;;;;;;26.27;13.35;;;-1.90;99.90;;;;;;4979578;28;20442;-59
2021/12/11 00:44:40;;;;;;;23.00;14.02;;;-1.90;99.90;;;;;;4969838;28;20468;-60
2021/12/11 00:47:17;;;;;;;26.50;14.18;;;-1.90;99.90;;;;;;4968493;28;20061;-60
2021/12/11 00:49:54;;;;;;;28.75;13.73;;;-2.00;99.90;;;;;;4994626;28;20058;-60
2021/12/11 00:52:48;;;;;;;43.63;15.07;;;-2.00;99.90;;;;;;4993589;28;20375;-60
2021/12/11 00:55:23;;;;;;;38.75;16.55;;;-2.00;99.90;;;;;;4982187;28;20061;-60
2021/12/11 00:58:10;;;;;;;26.70;15.25;;;-2.00;99.90;;;;;;4985804;28;20089;-59
2021/12/11 01:00:51;;;;;;;28.38;15.50;;;-2.00;99.90;;;;;;4981910;28;20049;-61
2021/12/11 01:03:27;;;;;;;27.13;15.20;;;-2.00;99.90;;;;;;4979676;28;20061;-60
2021/12/11 01:05:56;;;;;;;23.77;14.88;;;-2.00;99.90;;;;;;4979590;28;20454;-61
2021/12/11 01:08:38;;;;;;;25.08;14.70;;;-2.00;99.90;;;;;;4951336;28;20097;-60
2021/12/11 01:11:20;;;;;;;24.98;14.85;;;-2.00;99.90;;;;;;4979552;28;20509;-60
2021/12/11 01:14:13;;;;;;;24.88;14.57;;;-1.90;99.90;;;;;;4995110;28;20065;-61
2021/12/11 01:16:41;;;;;;;22.52;12.88;;;-2.00;99.90;;;;;;4977982;28;20046;-60
2021/12/11 01:19:16;;;;;;;20.35;13.02;;;-2.00;99.90;;;;;;4979863;28;20046;-60
2021/12/11 01:21:45;;;;;;;20.85;13.05;;;-2.00;99.90;;;;;;4966521;28;20053;-59
2021/12/11 01:24:28;;;;;;;21.42;13.60;;;-2.00;99.90;;;;;;4978757;28;20050;-60
2021/12/11 01:26:56;;;;;;;21.90;14.18;;;-2.00;99.90;;;;;;4979825;28;20148;-60
2021/12/11 01:29:23;;;;;;;39.20;17.23;;;-2.00;99.90;;;;;;4984211;28;20065;-60
2021/12/11 01:31:52;;;;;;;32.47;18.80;;;-2.00;99.90;;;;;;4988044;28;20173;-60
2021/12/11 01:34:18;;;;;;;35.53;19.05;;;-2.00;99.90;;;;;;4992214;28;20045;-61
2021/12/11 01:36:46;;;;;;;36.22;18.75;;;-2.00;99.90;;;;;;4979434;28;20038;-60
2021/12/11 01:39:16;;;;;;;31.65;18.25;;;-1.90;99.90;;;;;;4981083;28;20153;-60
2021/12/11 01:41:43;;;;;;;176.90;26.48;;;-2.00;99.90;;;;;;4978846;28;20050;-62
2021/12/11 01:44:14;;;;;;;61.60;21.88;;;-1.90;99.90;;;;;;4984605;28;20052;-60
2021/12/11 01:46:42;;;;;;;65.55;23.95;;;-1.90;99.90;;;;;;4966314;28;20479;-60
2021/12/11 01:49:13;;;;;;;49.70;21.88;;;-1.90;99.90;;;;;;4984162;28;20449;-60
2021/12/11 01:51:45;;;;;;;32.15;17.88;;;-1.80;99.90;;;;;;4961322;28;20042;-61
2021/12/11 01:54:23;;;;;;;34.42;18.13;;;-1.80;99.90;;;;;;4993679;28;20463;-61
2021/12/11 01:56:59;;;;;;;36.28;18.73;;;-1.90;99.90;;;;;;4980602;28;20381;-60
2021/12/11 01:59:29;;;;;;;37.80;18.90;;;-1.90;99.90;;;;;;4984698;28;20454;-60
2021/12/11 02:02:03;;;;;;;29.38;18.02;;;-1.90;99.90;;;;;;4990028;28;20407;-60
2021/12/11 02:04:32;;;;;;;28.73;16.77;;;-1.90;99.90;;;;;;4977419;28;20046;-60
2021/12/11 02:07:03;;;;;;;25.48;14.90;;;-2.00;99.90;;;;;;4935555;28;20045;-60
2021/12/11 02:09:33;;;;;;;21.35;14.77;;;-2.00;99.90;;;;;;4979395;28;20062;-61
2021/12/11 02:12:18;;;;;;;20.42;14.07;;;-2.00;99.90;;;;;;4984581;28;20079;-61
2021/12/11 02:14:48;;;;;;;23.70;13.95;;;-2.00;99.90;;;;;;4979890;28;20049;-60
2021/12/11 02:17:23;;;;;;;23.73;15.07;;;-2.00;99.90;;;;;;4982428;28;20073;-60
2021/12/11 02:19:51;;;;;;;29.95;17.80;;;-2.10;99.90;;;;;;4975531;28;20576;-61
2021/12/11 02:22:23;;;;;;;29.00;17.98;;;-2.00;99.90;;;;;;4981749;28;20045;-61
2021/12/11 02:24:54;;;;;;;28.60;17.50;;;-2.00;99.90;;;;;;4981254;28;20046;-61
2021/12/11 02:27:29;;;;;;;29.27;18.13;;;-2.00;99.90;;;;;;4978991;28;20587;-60
2021/12/11 02:30:12;;;;;;;29.10;16.90;;;-1.90;99.90;;;;;;4985460;28;20416;-60
2021/12/11 02:32:44;;;;;;;28.02;16.33;;;-2.00;99.90;;;;;;4983671;28;20560;-60
2021/12/11 02:35:27;;;;;;;29.52;17.63;;;-2.00;99.90;;;;;;4981687;28;20100;-62
2021/12/11 02:38:09;;;;;;;30.65;18.73;;;-2.00;99.90;;;;;;4983431;28;20512;-60
2021/12/11 02:40:50;;;;;;;28.75;17.80;;;-2.10;99.90;;;;;;4964811;28;20042;-60
2021/12/11 02:43:32;;;;;;;33.78;19.30;;;-2.10;99.90;;;;;;4964069;28;20065;-60
2021/12/11 02:46:27;;;;;;;42.05;21.75;;;-2.10;99.90;;;;;;4966411;28;20089;-61
2021/12/11 02:49:02;;;;;;;37.63;20.60;;;-2.00;99.90;;;;;;4978923;28;20164;-60
2021/12/11 02:51:40;;;;;;;37.55;20.98;;;-2.00;99.90;;;;;;4993450;28;20046;-60
2021/12/11 02:54:18;;;;;;;42.58;23.05;;;-2.00;99.90;;;;;;4967685;28;20130;-60
2021/12/11 02:56:55;;;;;;;36.97;20.73;;;-1.90;99.90;;;;;;4983258;28;20054;-61
2021/12/11 02:59:25;;;;;;;34.60;19.45;;;-1.90;99.90;;;;;;4988838;28;20053;-61
2021/12/11 03:01:55;;;;;;;34.17;20.08;;;-1.90;99.90;;;;;;4988370;28;20041;-60
2021/12/11 03:04:43;;;;;;;33.00;19.08;;;-1.90;99.90;;;;;;4975023;28;20049;-60
2021/12/11 03:07:13;;;;;;;34.58;19.85;;;-1.90;99.90;;;;;;4991636;28;20057;-61
2021/12/11 03:09:44;;;;;;;36.90;20.13;;;-1.90;99.90;;;;;;4979921;28;20047;-61
2021/12/11 03:12:13;;;;;;;35.38;19.27;;;-1.90;99.90;;;;;;4986718;28;20054;-60
2021/12/11 03:14:41;;;;;;;31.15;18.27;;;-1.90;99.90;;;;;;4987493;28;20089;-60
2021/12/11 03:17:08;;;;;;;31.55;17.27;;;-1.90;99.90;;;;;;4986784;28;20054;-60
2021/12/11 03:19:37;;;;;;;33.38;18.80;;;-2.00;99.90;;;;;;4962846;28;20049;-61
2021/12/11 03:22:05;;;;;;;33.95;19.17;;;-2.00;99.90;;;;;;4984213;28;20046;-60
2021/12/11 03:24:33;;;;;;;30.98;18.70;;;-2.00;99.90;;;;;;4982520;28;20132;-60
2021/12/11 03:26:59;;;;;;;35.70;18.85;;;-2.00;99.90;;;;;;4981348;28;20405;-60
2021/12/11 03:29:25;;;;;;;40.75;21.90;;;-2.00;99.90;;;;;;4983249;28;20558;-60
2021/12/11 03:31:52;;;;;;;36.60;20.40;;;-2.00;99.90;;;;;;4985942;28;20053;-60
2021/12/11 03:34:22;;;;;;;38.25;20.75;;;-2.00;99.90;;;;;;4979411;28;20081;-61
2021/12/11 03:36:50;;;;;;;40.88;21.10;;;-2.00;99.90;;;;;;4982071;28;20058;-60
2021/12/11 03:39:25;;;;;;;39.47;21.52;;;-2.00;99.90;;;;;;4971267;28;20547;-60
2021/12/11 03:41:53;;;;;;;39.10;22.65;;;-2.00;99.90;;;;;;4981320;28;20046;-60
2021/12/11 03:44:20;;;;;;;47.50;24.05;;;-2.00;99.90;;;;;;4979396;28;20046;-60
2021/12/11 03:46:53;;;;;;;44.47;23.80;;;-1.90;99.90;;;;;;4948854;28;20530;-60
2021/12/11 03:49:22;;;;;;;44.70;22.92;;;-1.90;99.90;;;;;;4979983;28;20110;-60
2021/12/11 03:51:51;;;;;;;46.15;23.65;;;-1.90;99.90;;;;;;4986419;28;20038;-61
2021/12/11 03:54:28;;;;;;;48.70;24.80;;;-1.90;99.90;;;;;;4970025;28;20488;-60
2021/12/11 03:56:54;;;;;;;47.83;23.00;;;-1.90;99.90;;;;;;4985503;28;20188;-60
2021/12/11 03:59:20;;;;;;;42.05;23.70;;;-1.80;99.90;;;;;;4985190;28;20050;-60
2021/12/11 04:01:55;;;;;;;41.22;23.48;;;-1.90;99.90;;;;;;4985464;28;20085;-61
2021/12/11 04:04:27;;;;;;;43.88;23.85;;;-1.90;99.90;;;;;;4978516;28;20100;-60
2021/12/11 04:06:56;;;;;;;39.25;21.13;;;-1.90;99.90;;;;;;4988300;28;20133;-60
2021/12/11 04:09:23;;;;;;;33.08;19.45;;;-1.90;99.90;;;;;;4996002;28;20046;-60
2021/12/11 04:11:50;;;;;;;35.67;20.02;;;-2.00;99.90;;;;;;4997547;28;20069;-62
2021/12/11 04:14:20;;;;;;;32.33;19.60;;;-2.00;99.90;;;;;;4996731;28;20050;-60
2021/12/11 04:16:47;;;;;;;36.08;20.60;;;-2.10;99.90;;;;;;4984272;28;20096;-60
2021/12/11 04:19:13;;;;;;;38.97;20.85;;;-2.10;99.90;;;;;;4995554;28;20053;-60
2021/12/11 04:21:40;;;;;;;31.92;18.40;;;-2.10;99.90;;;;;;4978577;28;20107;-60
2021/12/11 04:24:08;;;;;;;32.38;18.17;;;-2.10;99.90;;;;;;4986149;28;20108;-60
2021/12/11 04:26:35;;;;;;;35.72;19.75;;;-2.20;99.90;;;;;;4996970;28;20493;-60
2021/12/11 04:29:00;;;;;;;31.02;18.52;;;-2.20;99.90;;;;;;4986368;28;20125;-60
2021/12/11 04:31:31;;;;;;;30.15;18.13;;;-2.20;99.90;;;;;;4948755;28;20041;-61
2021/12/11 04:34:02;;;;;;;31.02;18.58;;;-2.20;99.90;;;;;;4985649;28;20442;-60
2021/12/11 04:36:34;;;;;;;30.83;17.67;;;-2.30;99.90;;;;;;4965372;28;20046;-60
2021/12/11 04:39:05;;;;;;;26.23;16.65;;;-2.30;99.90;;;;;;4997049;28;20100;-61
2021/12/11 04:41:39;;;;;;;27.17;16.52;;;-2.30;99.90;;;;;;4980765;28;20050;-60
2021/12/11 04:44:11;;;;;;;29.27;16.15;;;-2.30;99.90;;;;;;4980182;28;20038;-61
2021/12/11 04:46:37;;;;;;;26.52;16.67;;;-2.30;99.90;;;;;;4973353;28;20516;-62
2021/12/11 04:51:45;;;;;;;30.58;16.50;;;-2.40;99.90;;;;;;4979169;28;20068;-60
2021/12/11 04:59:56;;;;;;;31.05;19.15;;;-2.40;99.90;;;;;;4996214;28;20100;-60
2021/12/11 05:10:19;;;;;;;37.47;21.30;;;-2.40;99.90;;;;;;4982387;28;20043;-60
2021/12/11 05:12:49;;;;;;;35.35;20.08;;;-2.40;99.90;;;;;;4978106;28;20046;-60
2021/12/11 05:15:20;;;;;;;38.90;21.92;;;-2.40;99.90;;;;;;4981685;28;20203;-60
2021/12/11 05:17:47;;;;;;;36.88;20.73;;;-2.40;99.90;;;;;;4993129;28;22945;-61
2021/12/11 05:20:15;;;;;;;39.22;22.02;;;-2.30;99.90;;;;;;4984562;28;20039;-60
2021/12/11 05:22:41;;;;;;;37.42;19.77;;;-2.30;99.90;;;;;;4977394;28;20046;-60
2021/12/11 05:25:09;;;;;;;35.53;21.13;;;-2.30;99.90;;;;;;4984379;28;20065;-61
2021/12/11 05:27:37;;;;;;;42.92;23.73;;;-2.20;99.90;;;;;;4984261;28;20276;-60
2021/12/11 05:30:07;;;;;;;42.72;23.00;;;-2.30;99.90;;;;;;4946995;28;20100;-60
2021/12/11 05:32:33;;;;;;;48.60;25.92;;;-2.30;99.90;;;;;;4963961;28;20060;-62
2021/12/11 05:34:59;;;;;;;61.30;28.70;;;-2.30;99.90;;;;;;4978918;28;20414;-60
2021/12/11 05:37:25;;;;;;;52.22;27.13;;;-2.20;99.90;;;;;;4980604;28;20612;-60
2021/12/11 05:39:53;;;;;;;49.75;26.17;;;-2.10;99.90;;;;;;4980967;28;20049;-60
2021/12/11 05:42:19;;;;;;;61.15;27.60;;;-2.10;99.90;;;;;;4979323;28;20046;-60
2021/12/11 05:44:44;;;;;;;51.95;26.70;;;-2.10;99.90;;;;;;4994508;28;20040;-60
2021/12/11 05:47:11;;;;;;;51.17;26.85;;;-2.00;99.90;;;;;;4982829;28;20484;-62
2021/12/11 05:49:41;;;;;;;46.72;23.83;;;-2.00;99.90;;;;;;4974933;28;20048;-62
2021/12/11 05:52:10;;;;;;;45.15;24.10;;;-2.10;99.90;;;;;;4961545;28;20050;-61
2021/12/11 05:54:37;;;;;;;45.03;25.10;;;-2.10;99.90;;;;;;4971612;28;20596;-61
2021/12/11 05:57:09;;;;;;;43.15;23.48;;;-2.10;99.90;;;;;;4981323;28;21657;-60
2021/12/11 05:59:36;;;;;;;44.45;23.65;;;-2.10;99.90;;;;;;4984095;28;20046;-61
2021/12/11 06:02:17;;;;;;;45.85;23.67;;;-2.10;99.90;;;;;;4979094;28;20046;-60
2021/12/11 06:04:44;;;;;;;43.67;24.00;;;-2.10;99.90;;;;;;4984197;28;20052;-61
2021/12/11 06:07:13;;;;;;;49.78;24.45;;;-2.10;99.90;;;;;;4984458;28;20145;-61
2021/12/11 06:09:42;;;;;;;55.83;28.02;;;-2.20;99.90;;;;;;4968633;28;20492;-60
2021/12/11 06:12:12;;;;;;;54.17;26.77;;;-2.20;99.90;;;;;;4979147;28;20579;-61
2021/12/11 06:14:40;;;;;;;54.80;28.73;;;-2.10;99.90;;;;;;4977223;28;20413;-61
2021/12/11 06:17:10;;;;;;;60.47;29.23;;;-2.10;99.90;;;;;;4957072;28;20069;-60
2021/12/11 06:19:37;;;;;;;54.08;28.63;;;-2.10;99.90;;;;;;4967514;28;20080;-60
2021/12/11 06:22:03;;;;;;;59.92;29.45;;;-2.10;99.90;;;;;;4994126;28;20100;-62
2021/12/11 06:24:29;;;;;;;56.45;29.77;;;-2.10;99.90;;;;;;4978369;28;20065;-61
2021/12/11 06:26:57;;;;;;;52.67;28.85;;;-2.00;99.90;;;;;;4984003;28;20054;-62
2021/12/11 06:29:23;;;;;;;52.25;27.70;;;-2.00;99.90;;;;;;4967538;28;20056;-61
2021/12/11 06:31:50;;;;;;;59.65;29.55;;;-2.00;99.90;;;;;;4995824;28;20084;-62
2021/12/11 06:34:16;;;;;;;59.72;30.67;;;-2.00;99.90;;;;;;4951229;28;20101;-62
2021/12/11 06:36:43;;;;;;;76.38;33.30;;;-2.00;99.90;;;;;;4963296;28;20050;-61
2021/12/11 06:39:13;;;;;;;65.00;32.85;;;-1.90;99.90;;;;;;4945777;28;20042;-61
2021/12/11 06:41:43;;;;;;;65.00;31.83;;;-1.80;99.90;;;;;;4982271;28;20042;-62
2021/12/11 06:44:10;;;;;;;61.35;30.05;;;-1.80;99.90;;;;;;4971338;28;20464;-62
2021/12/11 06:46:37;;;;;;;52.88;27.50;;;-1.80;99.90;;;;;;4981986;28;20485;-60
2021/12/11 06:49:04;;;;;;;51.13;28.13;;;-1.80;99.90;;;;;;4976166;28;20050;-62
2021/12/11 06:51:31;;;;;;;56.17;27.15;;;-1.80;99.90;;;;;;4979510;28;20081;-61
2021/12/11 06:54:03;;;;;;;52.38;27.77;;;-1.90;99.90;;;;;;4976014;28;20100;-60
2021/12/11 06:56:30;;;;;;;55.28;26.77;;;-1.90;99.90;;;;;;4980135;28;21907;-61
2021/12/11 06:58:57;;;;;;;46.60;25.65;;;-1.90;99.90;;;;;;4978900;28;20370;-61
2021/12/11 07:01:25;;;;;;;45.10;24.48;;;-2.00;99.90;;;;;;4982761;28;20042;-60
2021/12/11 07:03:52;;;;;;;41.78;23.90;;;-2.00;99.90;;;;;;4976766;28;20046;-61
2021/12/11 07:06:19;;;;;;;43.88;24.67;;;-2.00;99.90;;;;;;4975542;28;20050;-60
2021/12/11 07:08:47;;;;;;;51.97;26.67;;;-2.10;99.90;;;;;;4964959;28;20160;-62
2021/12/11 07:11:13;;;;;;;52.95;28.13;;;-2.10;99.90;;;;;;4983985;28;20046;-62
2021/12/11 07:13:41;;;;;;;54.55;27.98;;;-2.10;99.90;;;;;;4975960;28;20068;-62
2021/12/11 07:16:07;;;;;;;62.03;30.83;;;-2.10;99.90;;;;;;4979859;28;20050;-61
2021/12/11 07:18:34;;;;;;;67.72;31.98;;;-2.10;99.90;;;;;;4976426;28;20042;-61
2021/12/11 07:21:01;;;;;;;58.25;30.58;;;-2.00;99.90;;;;;;4969094;28;20045;-60
2021/12/11 07:23:27;;;;;;;61.25;29.80;;;-2.00;99.90;;;;;;4978617;28;20121;-62
2021/12/11 07:25:56;;;;;;;58.70;30.40;;;-2.00;99.90;;;;;;4983072;28;20543;-60
2021/12/11 07:28:22;;;;;;;63.17;30.13;;;-2.00;99.90;;;;;;4985306;28;20058;-61
2021/12/11 07:30:50;;;;;;;54.45;29.52;;;-1.90;99.90;;;;;;4991006;28;20037;-60
2021/12/11 07:33:17;;;;;;;48.13;26.63;;;-1.90;99.90;;;;;;4968329;28;20081;-60
2021/12/11 07:35:45;;;;;;;48.25;25.95;;;-2.00;99.90;;;;;;4972142;28;20064;-61
2021/12/11 07:38:11;;;;;;;50.45;28.15;;;-2.00;99.90;;;;;;4967045;28;20054;-60
2021/12/11 07:40:42;;;;;;;50.78;26.42;;;-2.00;99.90;;;;;;4966820;28;20038;-60
2021/12/11 07:43:10;;;;;;;49.83;26.55;;;-2.10;99.90;;;;;;4967721;28;20046;-61
2021/12/11 07:45:36;;;;;;;48.10;25.85;;;-2.10;99.90;;;;;;4977009;28;20053;-60
2021/12/11 07:48:03;;;;;;;47.95;26.63;;;-2.10;99.90;;;;;;4990746;28;20069;-60
2021/12/11 07:50:29;;;;;;;51.30;26.52;;;-2.10;99.90;;;;;;4983575;28;20053;-60
2021/12/11 07:52:55;;;;;;;51.28;27.48;;;-2.10;99.90;;;;;;4951097;28;20382;-61
2021/12/11 07:55:22;;;;;;;59.30;30.55;;;-2.10;99.90;;;;;;4997047;28;20146;-60
2021/12/11 07:57:48;;;;;;;61.67;30.05;;;-2.00;99.90;;;;;;4971479;28;20058;-61
2021/12/11 08:00:19;;;;;;;59.47;31.45;;;-2.00;99.90;;;;;;4997129;28;20087;-62
2021/12/11 08:02:46;;;;;;;63.15;32.40;;;-2.00;99.90;;;;;;4980497;28;20524;-60
2021/12/11 08:05:13;;;;;;;57.17;31.52;;;-2.00;99.90;;;;;;4967081;28;20065;-60
2021/12/11 08:07:40;;;;;;;58.33;31.05;;;-1.90;99.90;;;;;;4987762;28;20042;-61
2021/12/11 08:10:10;;;;;;;56.47;31.17;;;-1.90;99.90;;;;;;4972459;28;20463;-61
2021/12/11 08:12:36;;;;;;;55.95;29.00;;;-1.90;99.90;;;;;;4979787;28;20052;-60
2021/12/11 08:15:05;;;;;;;54.35;28.85;;;-1.90;99.90;;;;;;4985557;28;20038;-60
2021/12/11 08:17:31;;;;;;;55.47;29.73;;;-1.90;99.90;;;;;;4986001;28;20100;-60
2021/12/11 08:19:57;;;;;;;60.25;30.92;;;-1.90;99.90;;;;;;4991401;28;20050;-61
2021/12/11 08:22:23;;;;;;;63.13;31.92;;;-1.90;99.90;;;;;;4980483;28;20049;-60
2021/12/11 08:24:50;;;;;;;60.78;31.35;;;-1.90;99.90;;;;;;4980798;28;20050;-60
2021/12/11 08:27:20;;;;;;;62.17;31.27;;;-1.90;99.90;;;;;;4956448;28;20049;-62
2021/12/11 08:29:49;;;;;;;53.45;29.58;;;-1.80;99.90;;;;;;4976470;28;20088;-62
2021/12/11 08:32:15;;;;;;;50.75;28.15;;;-1.80;99.90;;;;;;4979290;28;20048;-63
2021/12/11 08:34:42;;;;;;;53.17;29.10;;;-1.80;99.90;;;;;;4996774;28;20133;-62
2021/12/11 08:37:10;;;;;;;57.00;29.88;;;-1.80;99.90;;;;;;4977437;28;20124;-62
2021/12/11 08:39:36;;;;;;;67.07;33.40;;;-1.80;99.90;;;;;;4987173;28;20042;-60
2021/12/11 08:42:05;;;;;;;68.45;34.22;;;-1.70;99.90;;;;;;4954458;28;20050;-59
2021/12/11 08:44:36;;;;;;;75.15;35.30;;;-1.70;99.90;;;;;;4980453;28;20934;-59
2021/12/11 08:47:07;;;;;;;60.15;33.35;;;-1.70;99.90;;;;;;4969283;28;20050;-61
2021/12/11 08:49:35;;;;;;;68.97;34.95;;;-1.70;99.90;;;;;;4964374;28;20142;-60
2021/12/11 08:52:09;;;;;;;70.25;35.50;;;-1.60;99.90;;;;;;4980079;28;20061;-60
2021/12/11 08:54:36;;;;;;;64.25;34.45;;;-1.60;99.90;;;;;;4970029;28;20085;-60
2021/12/11 08:57:06;;;;;;;86.72;39.83;;;-1.60;99.90;;;;;;4969380;28;20132;-60
2021/12/11 08:59:34;;;;;;;78.25;36.70;;;-1.50;99.90;;;;;;4980140;28;20053;-62
2021/12/11 09:02:10;;;;;;;83.50;40.38;;;-1.40;99.90;;;;;;4986618;28;20230;-60
2021/12/11 09:04:43;;;;;;;77.90;38.55;;;-1.40;99.90;;;;;;4984778;28;20046;-60
2021/12/11 09:07:29;;;;;;;84.75;40.90;;;-1.30;99.90;;;;;;4986416;28;20120;-60
2021/12/11 09:09:59;;;;;;;88.68;40.00;;;-1.30;99.90;;;;;;4970387;28;20046;-61
2021/12/11 09:12:36;;;;;;;87.95;41.38;;;-1.20;99.90;;;;;;4985380;28;20501;-60
2021/12/11 09:15:37;;;;;;;95.53;43.08;;;-1.10;99.90;;;;;;4977305;28;20064;-60
2021/12/11 09:18:09;;;;;;;99.88;44.92;;;-1.00;99.90;;;;;;4967593;28;20077;-60
2021/12/11 09:20:45;;;;;;;106.35;46.67;;;-0.90;99.90;;;;;;4978739;28;20492;-61
2021/12/11 09:23:24;;;;;;;115.93;48.83;;;-0.80;99.90;;;;;;4979127;28;20772;-59
2021/12/11 09:26:09;;;;;;;109.30;47.13;;;-0.70;99.90;;;;;;4977300;28;20042;-59
2021/12/11 09:28:46;;;;;;;109.50;47.50;;;-0.70;99.90;;;;;;4994236;28;20460;-59
2021/12/11 09:31:16;;;;;;;105.47;45.95;;;-0.60;99.90;;;;;;4983488;28;20374;-59
2021/12/11 09:33:51;;;;;;;104.75;47.45;;;-0.50;99.90;;;;;;4984525;28;20387;-60
2021/12/11 09:36:31;;;;;;;98.25;43.50;;;-0.40;99.90;;;;;;4968724;28;20072;-59
2021/12/11 09:39:21;;;;;;;101.90;44.88;;;-0.10;99.90;;;;;;4986130;28;20056;-60
2021/12/11 09:41:47;;;;;;;100.03;43.53;;;-0.20;99.90;;;;;;4986142;28;20054;-60
2021/12/11 09:44:23;;;;;;;88.82;41.47;;;-0.20;99.90;;;;;;4979025;28;20131;-59
2021/12/11 09:46:55;;;;;;;97.90;44.30;;;-0.10;99.90;;;;;;4965124;28;20440;-59
2021/12/11 09:49:26;;;;;;;93.50;42.75;;;-0.10;99.90;;;;;;4964307;28;20153;-59
2021/12/11 09:52:01;;;;;;;98.18;43.30;;;0.00;99.90;;;;;;4983054;28;20050;-61
2021/12/11 09:54:34;;;;;;;88.93;42.22;;;0.10;99.90;;;;;;4964618;28;20049;-59
2021/12/11 09:57:13;;;;;;;84.85;41.55;;;0.10;99.90;;;;;;4978475;28;20750;-60
2021/12/11 09:59:40;;;;;;;97.38;43.45;;;0.20;99.90;;;;;;4979721;28;20112;-61
2021/12/11 10:02:19;;;;;;;95.57;43.17;;;0.40;99.90;;;;;;4978248;28;20044;-60
2021/12/11 10:05:37;;;;;;;93.35;42.45;;;0.40;99.90;;;;;;4982078;28;20117;-59
2021/12/11 10:10:53;;;;;;;88.22;41.47;;;0.70;99.90;;;;;;4979373;28;20344;-59
2021/12/11 10:13:19;;;;;;;84.25;40.03;;;0.80;99.90;;;;;;4993561;28;20121;-59
2021/12/11 10:15:45;;;;;;;85.13;41.78;;;0.90;99.90;;;;;;4993620;28;20129;-60
2021/12/11 10:18:18;;;;;;;93.68;41.47;;;1.00;99.90;;;;;;4978790;28;20125;-59
2021/12/11 10:20:48;;;;;;;84.22;41.38;;;1.10;99.90;;;;;;4992607;28;20502;-59
2021/12/11 10:23:18;;;;;;;85.13;39.20;;;1.30;99.90;;;;;;4978714;28;20108;-59
2021/12/11 10:25:45;;;;;;;88.75;39.60;;;1.40;99.90;;;;;;4985436;28;20049;-60
2021/12/11 10:28:19;;;;;;;79.15;40.35;;;1.50;99.90;;;;;;4984144;28;20057;-60
2021/12/11 10:30:54;;;;;;;84.20;40.35;;;1.60;99.90;;;;;;4979223;28;20045;-60
2021/12/11 10:33:24;;;;;;;79.28;39.83;;;1.80;99.90;;;;;;4975890;28;20056;-60
2021/12/11 10:35:52;;;;;;;76.72;38.03;;;1.90;99.90;;;;;;4983589;28;20042;-60
2021/12/11 10:38:18;;;;;;;76.93;39.20;;;2.10;99.90;;;;;;4984351;28;20069;-60
2021/12/11 10:40:52;;;;;;;68.35;36.53;;;2.20;99.90;;;;;;4978060;28;20042;-61
2021/12/11 10:43:22;;;;;;;74.78;37.45;;;2.30;99.90;;;;;;4979190;28;20533;-60
2021/12/11 10:45:49;;;;;;;73.38;36.42;;;2.40;99.90;;;;;;4978584;28;20046;-60
2021/12/11 10:48:20;;;;;;;61.05;34.45;;;2.50;99.90;;;;;;4988529;28;20085;-60
2021/12/11 10:50:56;;;;;;;58.83;32.78;;;2.60;99.90;;;;;;4983687;28;20050;-60
2021/12/11 10:53:25;;;;;;;62.10;33.67;;;2.60;99.90;;;;;;4996587;28;20053;-60
2021/12/11 10:55:53;;;;;;;72.13;35.33;;;2.70;99.90;;;;;;4963983;28;20143;-60
2021/12/11 10:58:33;;;;;;;57.00;32.33;;;2.80;99.90;;;;;;4978789;28;20486;-60
2021/12/11 11:01:11;;;;;;;58.17;32.75;;;2.90;99.90;;;;;;4978395;28;20163;-60
2021/12/11 11:03:44;;;;;;;56.03;31.25;;;3.10;99.90;;;;;;4951195;28;20043;-65
2021/12/11 11:06:11;;;;;;;51.00;31.08;;;3.20;99.90;;;;;;4983746;28;20053;-63
2021/12/11 11:08:36;;;;;;;54.63;31.25;;;3.30;99.90;;;;;;4979509;28;20042;-63
2021/12/11 11:11:10;;;;;;;51.50;29.50;;;3.40;99.90;;;;;;4977716;28;20044;-64
2021/12/11 11:13:36;;;;;;;45.22;27.67;;;3.40;99.90;;;;;;4963181;28;20473;-64
2021/12/11 11:16:02;;;;;;;53.28;30.17;;;3.40;99.90;;;;;;4961675;28;20050;-64
2021/12/11 11:18:29;;;;;;;49.65;29.33;;;3.40;99.90;;;;;;4963102;28;20042;-64
2021/12/11 11:21:08;;;;;;;49.13;28.63;;;3.40;99.90;;;;;;4961342;28;20826;-64
2021/12/11 11:23:36;;;;;;;47.55;27.80;;;3.40;99.90;;;;;;4993872;28;20050;-64
2021/12/11 11:26:06;;;;;;;41.85;26.33;;;3.40;99.90;;;;;;4968793;28;20046;-64
2021/12/11 11:28:33;;;;;;;41.50;26.95;;;3.40;99.90;;;;;;4973521;28;20058;-64
2021/12/11 11:31:11;;;;;;;42.50;25.75;;;3.40;99.90;;;;;;4982737;28;20045;-64
2021/12/11 11:33:39;;;;;;;42.25;25.95;;;3.40;99.90;;;;;;4997228;28;20042;-64
2021/12/11 11:36:10;;;;;;;44.15;26.08;;;3.30;99.90;;;;;;4966456;28;20053;-64
2021/12/11 11:38:41;;;;;;;45.70;26.70;;;3.30;99.90;;;;;;4954719;28;20188;-64
2021/12/11 11:41:15;;;;;;;45.13;26.75;;;3.30;99.90;;;;;;4970468;28;20045;-64
2021/12/11 11:43:42;;;;;;;46.42;26.38;;;3.30;99.90;;;;;;4975595;28;20057;-64
2021/12/11 11:46:08;;;;;;;42.13;25.98;;;3.30;99.90;;;;;;4954081;28;20049;-65
2021/12/11 11:48:38;;;;;;;43.15;25.92;;;3.40;99.90;;;;;;4964260;28;20136;-64
2021/12/11 11:51:08;;;;;;;41.92;25.38;;;3.30;99.90;;;;;;4984382;28;20610;-65
2021/12/11 11:53:34;;;;;;;36.78;23.08;;;3.30;99.90;;;;;;4993450;28;20058;-64
2021/12/11 11:56:07;;;;;;;41.25;24.73;;;3.30;99.90;;;;;;4979646;28;20050;-65
2021/12/11 11:58:33;;;;;;;;;;;3.30;99.90;;;;;;4993947;28;20088;-64
2021/12/11 12:01:06;;;;;;;41.28;24.23;;;3.40;99.90;;;;;;4979853;28;19975;-66
2021/12/11 12:03:33;;;;;;;38.25;25.00;;;3.40;99.90;;;;;;4998251;28;20109;-64
2021/12/11 12:06:05;;;;;;;40.60;25.13;;;3.30;99.90;;;;;;4980790;28;20088;-64
2021/12/11 12:08:31;;;;;;;40.38;24.08;;;3.30;99.90;;;;;;4982543;28;20479;-63
2021/12/11 12:10:58;;;;;;;33.20;22.33;;;3.20;99.90;;;;;;4991972;28;20041;-66
2021/12/11 12:13:27;;;;;;;38.65;23.77;;;3.20;99.90;;;;;;4983328;28;20050;-64
2021/12/11 12:16:01;;;;;;;39.35;24.77;;;3.10;99.90;;;;;;4972476;28;20081;-64
2021/12/11 12:18:27;;;;;;;37.47;23.27;;;3.10;99.90;;;;;;4981247;28;20404;-64
2021/12/11 12:20:55;;;;;;;39.40;24.15;;;3.10;99.90;;;;;;4985093;28;20153;-66
2021/12/11 12:23:22;;;;;;;38.08;22.95;;;3.10;99.90;;;;;;4994538;28;20034;-64
2021/12/11 12:25:52;;;;;;;36.42;23.45;;;3.10;99.90;;;;;;4986324;28;20401;-64
2021/12/11 12:28:18;;;;;;;35.92;22.67;;;3.10;99.90;;;;;;4979876;28;20133;-66
2021/12/11 12:30:53;;;;;;;42.60;22.73;;;3.10;99.90;;;;;;4963094;28;20041;-64
2021/12/11 12:33:19;;;;;;;36.13;22.05;;;3.10;99.90;;;;;;4975289;28;20046;-65
2021/12/11 12:35:46;;;;;;;32.95;22.13;;;3.00;99.90;;;;;;4978115;28;20058;-65
2021/12/11 12:38:16;;;;;;;35.75;21.05;;;3.00;99.90;;;;;;4985447;28;20046;-65
2021/12/11 12:41:09;;;;;;;32.55;21.67;;;3.00;99.90;;;;;;4990414;28;20046;-64
2021/12/11 12:46:09;;;;;;;47.10;24.55;;;3.00;99.90;;;;;;4975130;28;20053;-64
2021/12/11 12:48:36;;;;;;;37.05;23.73;;;3.00;99.90;;;;;;4976513;28;20058;-64
2021/12/11 12:51:07;;;;;;;34.67;22.23;;;3.00;99.90;;;;;;4977591;28;20073;-65
2021/12/11 12:53:34;;;;;;;36.92;23.17;;;3.10;99.90;;;;;;4977686;28;20400;-64
2021/12/11 12:56:19;;;;;;;34.80;22.15;;;3.10;99.90;;;;;;4977846;28;20130;-65
2021/12/11 12:58:58;;;;;;;37.88;23.00;;;3.10;99.90;;;;;;4973339;28;20086;-65
2021/12/11 13:01:46;;;;;;;41.28;23.02;;;3.00;99.90;;;;;;4940298;28;20054;-65
2021/12/11 13:04:15;;;;;;;36.53;22.25;;;3.10;99.90;;;;;;4977288;28;20182;-64
2021/12/11 13:06:46;;;;;;;34.65;22.27;;;3.00;99.90;;;;;;4965344;28;20046;-66
2021/12/11 13:09:15;;;;;;;41.88;22.85;;;3.10;99.90;;;;;;4979761;28;20456;-64
2021/12/11 13:11:53;;;;;;;34.20;21.60;;;3.10;99.90;;;;;;4963293;28;20108;-64